sensor_id;sensor_type;location;lat;lon;timestamp;temperature;humidity
42479;DHT22;28110;47.080;9.476;2023-01-26T00:00:26;0.30;99.90
42479;DHT22;28110;47.080;9.476;2023-01-26T00:02:51;0.30;99.90
42479;DHT22;28110;47.080;9.476;2023-01-26T00:05:17;0.40;99.90
42479;DHT22;28110;47.080;9.476;2023-01-26T00:07:42;0.30;99.90
42479;DHT22;28110;47.080;9.476;2023-01-26T00:10:10;0.40;99.90
42479;DHT22;28110;47.080;9.476;2023-01-26T00:12:36;0.40;99.90
42479;DHT22;28110;47.080;9.476;2023-01-26T00:15:02;0.40;99.90
42479;DHT22;28110;47.080;9.476;2023-01-26T00:17:28;0.40;99.90
42479;DHT22;28110;47.080;9.476;2023-01-26T00:19:57;0.40;99.90
42479;DHT22;28110;47.080;9.476;2023-01-26T00:22:25;0.40;99.90
42479;DHT22;28110;47.080;9.476;2023-01-26T00:24:51;0.40;99.90
42479;DHT22;28110;47.080;9.476;2023-01-26T00:27:16;0.40;99.90
42479;DHT22;28110;47.080;9.476;2023-01-26T00:29:42;0.40;99.90
42479;DHT22;28110;47.080;9.476;2023-01-26T00:32:08;0.40;99.90
42479;DHT22;28110;47.080;9.476;2023-01-26T00:34:34;0.40;99.90
42479;DHT22;28110;47.080;9.476;2023-01-26T00:36:59;0.40;99.90
42479;DHT22;28110;47.080;9.476;2023-01-26T00:39:25;0.50;99.90
42479;DHT22;28110;47.080;9.476;2023-01-26T00:41:50;0.50;99.90
42479;DHT22;28110;47.080;9.476;2023-01-26T00:44:31;0.50;99.90
42479;DHT22;28110;47.080;9.476;2023-01-26T00:46:57;0.40;99.90
42479;DHT22;28110;47.080;9.476;2023-01-26T00:49:22;0.40;99.90
42479;DHT22;28110;47.080;9.476;2023-01-26T00:51:48;0.50;99.90
42479;DHT22;28110;47.080;9.476;2023-01-26T00:54:14;0.50;99.90
42479;DHT22;28110;47.080;9.476;2023-01-26T00:56:39;0.50;99.90
42479;DHT22;28110;47.080;9.476;2023-01-26T00:59:05;0.50;99.90
42479;DHT22;28110;47.080;9.476;2023-01-26T01:01:31;0.50;99.90
42479;DHT22;28110;47.080;9.476;2023-01-26T01:03:57;0.50;99.90
42479;DHT22;28110;47.080;9.476;2023-01-26T01:06:22;0.60;99.90
42479;DHT22;28110;47.080;9.476;2023-01-26T01:08:48;0.60;99.90
42479;DHT22;28110;47.080;9.476;2023-01-26T01:11:13;0.60;99.90
42479;DHT22;28110;47.080;9.476;2023-01-26T01:13:39;0.60;99.90
42479;DHT22;28110;47.080;9.476;2023-01-26T01:16:06;0.60;99.90
42479;DHT22;28110;47.080;9.476;2023-01-26T01:18:32;0.50;99.90
42479;DHT22;28110;47.080;9.476;2023-01-26T01:20:58;0.50;99.90
42479;DHT22;28110;47.080;9.476;2023-01-26T01:23:26;0.50;99.90
42479;DHT22;28110;47.080;9.476;2023-01-26T01:25:57;0.50;99.90
42479;DHT22;28110;47.080;9.476;2023-01-26T01:28:23;0.50;99.90
42479;DHT22;28110;47.080;9.476;2023-01-26T01:30:49;0.50;99.90
42479;DHT22;28110;47.080;9.476;2023-01-26T01:33:14;0.50;99.90
42479;DHT22;28110;47.080;9.476;2023-01-26T01:35:40;0.50;99.90
42479;DHT22;28110;47.080;9.476;2023-01-26T01:38:05;0.50;99.90
42479;DHT22;28110;47.080;9.476;2023-01-26T01:40:31;0.50;99.90
42479;DHT22;28110;47.080;9.476;2023-01-26T01:42:56;0.50;99.90
42479;DHT22;28110;47.080;9.476;2023-01-26T01:47:54;0.50;99.90
42479;DHT22;28110;47.080;9.476;2023-01-26T01:50:21;0.50;99.90
42479;DHT22;28110;47.080;9.476;2023-01-26T01:52:46;0.50;99.90
42479;DHT22;28110;47.080;9.476;2023-01-26T01:55:14;0.50;99.90
42479;DHT22;28110;47.080;9.476;2023-01-26T01:57:48;0.50;99.90
42479;DHT22;28110;47.080;9.476;2023-01-26T02:00:18;0.50;99.90
42479;DHT22;28110;47.080;9.476;2023-01-26T02:02:47;0.50;99.90
42479;DHT22;28110;47.080;9.476;2023-01-26T02:05:40;0.50;99.90
42479;DHT22;28110;47.080;9.476;2023-01-26T02:08:09;0.50;99.90
42479;DHT22;28110;47.080;9.476;2023-01-26T02:10:36;0.50;99.90
42479;DHT22;28110;47.080;9.476;2023-01-26T02:13:02;0.50;99.90
42479;DHT22;28110;47.080;9.476;2023-01-26T02:15:29;0.50;99.90
42479;DHT22;28110;47.080;9.476;2023-01-26T02:17:55;0.50;99.90
42479;DHT22;28110;47.080;9.476;2023-01-26T02:20:36;0.40;99.90
42479;DHT22;28110;47.080;9.476;2023-01-26T02:23:11;0.50;99.90
42479;DHT22;28110;47.080;9.476;2023-01-26T02:28:13;0.50;99.90
42479;DHT22;28110;47.080;9.476;2023-01-26T02:30:39;0.50;99.90
42479;DHT22;28110;47.080;9.476;2023-01-26T02:33:05;0.50;99.90
42479;DHT22;28110;47.080;9.476;2023-01-26T02:35:30;0.50;99.90
42479;DHT22;28110;47.080;9.476;2023-01-26T02:37:56;0.40;99.90
42479;DHT22;28110;47.080;9.476;2023-01-26T02:40:53;0.40;99.90
42479;DHT22;28110;47.080;9.476;2023-01-26T02:43:17;0.40;99.90
42479;DHT22;28110;47.080;9.476;2023-01-26T02:45:43;0.40;99.90
42479;DHT22;28110;47.080;9.476;2023-01-26T02:48:09;0.40;99.90
42479;DHT22;28110;47.080;9.476;2023-01-26T02:50:34;0.40;99.90
42479;DHT22;28110;47.080;9.476;2023-01-26T02:53:01;0.40;99.90
42479;DHT22;28110;47.080;9.476;2023-01-26T02:55:26;0.30;99.90
42479;DHT22;28110;47.080;9.476;2023-01-26T02:58:00;0.30;99.90
42479;DHT22;28110;47.080;9.476;2023-01-26T03:00:29;0.30;99.90
42479;DHT22;28110;47.080;9.476;2023-01-26T03:02:57;0.30;99.90
42479;DHT22;28110;47.080;9.476;2023-01-26T03:05:24;0.30;99.90
42479;DHT22;28110;47.080;9.476;2023-01-26T03:07:49;0.20;99.90
42479;DHT22;28110;47.080;9.476;2023-01-26T03:10:15;0.30;99.90
42479;DHT22;28110;47.080;9.476;2023-01-26T03:12:42;0.20;99.90
42479;DHT22;28110;47.080;9.476;2023-01-26T03:15:08;0.20;99.90
42479;DHT22;28110;47.080;9.476;2023-01-26T03:18:03;0.20;99.90
42479;DHT22;28110;47.080;9.476;2023-01-26T03:20:47;0.20;99.90
42479;DHT22;28110;47.080;9.476;2023-01-26T03:23:39;0.20;99.90
42479;DHT22;28110;47.080;9.476;2023-01-26T03:26:23;0.10;99.90
42479;DHT22;28110;47.080;9.476;2023-01-26T03:29:07;0.10;99.90
42479;DHT22;28110;47.080;9.476;2023-01-26T03:31:33;0.10;99.90
42479;DHT22;28110;47.080;9.476;2023-01-26T03:33:59;0.10;99.90
42479;DHT22;28110;47.080;9.476;2023-01-26T03:36:24;0.10;99.90
42479;DHT22;28110;47.080;9.476;2023-01-26T03:38:50;0.10;99.90
42479;DHT22;28110;47.080;9.476;2023-01-26T03:41:15;0.10;99.90
42479;DHT22;28110;47.080;9.476;2023-01-26T03:43:59;0.10;99.90
42479;DHT22;28110;47.080;9.476;2023-01-26T03:46:43;0.10;99.90
42479;DHT22;28110;47.080;9.476;2023-01-26T03:49:27;0.10;99.90
42479;DHT22;28110;47.080;9.476;2023-01-26T03:52:12;0.10;99.90
42479;DHT22;28110;47.080;9.476;2023-01-26T03:54:55;0.10;99.90
42479;DHT22;28110;47.080;9.476;2023-01-26T03:57:40;0.10;99.90
42479;DHT22;28110;47.080;9.476;2023-01-26T04:00:06;0.10;99.90
42479;DHT22;28110;47.080;9.476;2023-01-26T04:02:31;0.10;99.90
42479;DHT22;28110;47.080;9.476;2023-01-26T04:05:16;0.10;99.90
42479;DHT22;28110;47.080;9.476;2023-01-26T04:08:04;0.10;99.90
42479;DHT22;28110;47.080;9.476;2023-01-26T04:10:49;0.10;99.90
42479;DHT22;28110;47.080;9.476;2023-01-26T04:13:17;0.20;99.90
42479;DHT22;28110;47.080;9.476;2023-01-26T04:16:02;0.20;99.90
42479;DHT22;28110;47.080;9.476;2023-01-26T04:18:46;0.20;99.90
42479;DHT22;28110;47.080;9.476;2023-01-26T04:21:30;0.20;99.90
42479;DHT22;28110;47.080;9.476;2023-01-26T04:24:01;0.20;99.90
42479;DHT22;28110;47.080;9.476;2023-01-26T04:26:30;0.20;99.90
42479;DHT22;28110;47.080;9.476;2023-01-26T04:29:00;0.20;99.90
42479;DHT22;28110;47.080;9.476;2023-01-26T04:31:26;0.20;99.90
42479;DHT22;28110;47.080;9.476;2023-01-26T04:33:52;0.20;99.90
42479;DHT22;28110;47.080;9.476;2023-01-26T04:36:17;0.20;99.90
42479;DHT22;28110;47.080;9.476;2023-01-26T04:38:43;0.20;99.90
42479;DHT22;28110;47.080;9.476;2023-01-26T04:41:08;0.20;99.90
42479;DHT22;28110;47.080;9.476;2023-01-26T04:43:34;0.20;99.90
42479;DHT22;28110;47.080;9.476;2023-01-26T04:46:04;0.20;99.90
42479;DHT22;28110;47.080;9.476;2023-01-26T04:48:30;0.20;99.90
42479;DHT22;28110;47.080;9.476;2023-01-26T04:50:58;0.30;99.90
42479;DHT22;28110;47.080;9.476;2023-01-26T04:53:25;0.30;99.90
42479;DHT22;28110;47.080;9.476;2023-01-26T04:55:51;0.30;99.90
42479;DHT22;28110;47.080;9.476;2023-01-26T04:58:17;0.30;99.90
42479;DHT22;28110;47.080;9.476;2023-01-26T05:00:43;0.40;99.90
42479;DHT22;28110;47.080;9.476;2023-01-26T05:03:09;0.40;99.90
42479;DHT22;28110;47.080;9.476;2023-01-26T05:05:38;0.40;99.90
42479;DHT22;28110;47.080;9.476;2023-01-26T05:08:04;0.40;99.90
42479;DHT22;28110;47.080;9.476;2023-01-26T05:10:31;0.50;99.90
42479;DHT22;28110;47.080;9.476;2023-01-26T05:12:57;0.50;99.90
42479;DHT22;28110;47.080;9.476;2023-01-26T05:15:22;0.50;99.90
42479;DHT22;28110;47.080;9.476;2023-01-26T05:17:48;0.60;99.90
42479;DHT22;28110;47.080;9.476;2023-01-26T05:20:13;0.60;99.90
42479;DHT22;28110;47.080;9.476;2023-01-26T05:22:39;0.60;99.90
42479;DHT22;28110;47.080;9.476;2023-01-26T05:25:05;0.60;99.90
42479;DHT22;28110;47.080;9.476;2023-01-26T05:27:30;0.60;99.90
42479;DHT22;28110;47.080;9.476;2023-01-26T05:29:56;0.60;99.90
42479;DHT22;28110;47.080;9.476;2023-01-26T05:32:26;0.70;99.90
42479;DHT22;28110;47.080;9.476;2023-01-26T05:34:52;0.60;99.90
42479;DHT22;28110;47.080;9.476;2023-01-26T05:37:18;0.70;99.90
42479;DHT22;28110;47.080;9.476;2023-01-26T05:39:43;0.70;99.90
42479;DHT22;28110;47.080;9.476;2023-01-26T05:42:10;0.80;99.90
42479;DHT22;28110;47.080;9.476;2023-01-26T05:44:35;0.80;99.90
42479;DHT22;28110;47.080;9.476;2023-01-26T05:47:01;0.80;99.90
42479;DHT22;28110;47.080;9.476;2023-01-26T05:49:27;0.80;99.90
42479;DHT22;28110;47.080;9.476;2023-01-26T05:51:52;0.80;99.90
42479;DHT22;28110;47.080;9.476;2023-01-26T05:54:18;0.80;99.90
42479;DHT22;28110;47.080;9.476;2023-01-26T05:56:43;0.80;99.90
42479;DHT22;28110;47.080;9.476;2023-01-26T05:59:09;0.80;99.90
42479;DHT22;28110;47.080;9.476;2023-01-26T06:01:34;0.80;99.90
42479;DHT22;28110;47.080;9.476;2023-01-26T06:04:00;0.90;99.90
42479;DHT22;28110;47.080;9.476;2023-01-26T06:06:26;0.80;99.90
42479;DHT22;28110;47.080;9.476;2023-01-26T06:08:51;0.80;99.90
42479;DHT22;28110;47.080;9.476;2023-01-26T06:11:17;0.80;99.90
42479;DHT22;28110;47.080;9.476;2023-01-26T06:13:42;0.80;99.90
42479;DHT22;28110;47.080;9.476;2023-01-26T06:16:08;0.80;99.90
42479;DHT22;28110;47.080;9.476;2023-01-26T06:18:33;0.80;99.90
42479;DHT22;28110;47.080;9.476;2023-01-26T06:20:59;0.70;99.90
42479;DHT22;28110;47.080;9.476;2023-01-26T06:23:25;0.70;99.90
42479;DHT22;28110;47.080;9.476;2023-01-26T06:25:51;0.70;99.90
42479;DHT22;28110;47.080;9.476;2023-01-26T06:28:17;0.60;99.90
42479;DHT22;28110;47.080;9.476;2023-01-26T06:30:44;0.60;99.90
42479;DHT22;28110;47.080;9.476;2023-01-26T06:33:10;0.60;99.90
42479;DHT22;28110;47.080;9.476;2023-01-26T06:35:36;0.60;99.90
42479;DHT22;28110;47.080;9.476;2023-01-26T06:38:01;0.70;99.90
42479;DHT22;28110;47.080;9.476;2023-01-26T06:40:27;0.70;99.90
42479;DHT22;28110;47.080;9.476;2023-01-26T06:42:52;0.80;99.90
42479;DHT22;28110;47.080;9.476;2023-01-26T06:45:18;0.80;99.90
42479;DHT22;28110;47.080;9.476;2023-01-26T06:47:49;0.80;99.90
42479;DHT22;28110;47.080;9.476;2023-01-26T06:50:17;0.90;99.90
42479;DHT22;28110;47.080;9.476;2023-01-26T06:52:46;0.90;99.90
42479;DHT22;28110;47.080;9.476;2023-01-26T06:55:23;0.90;99.90
42479;DHT22;28110;47.080;9.476;2023-01-26T06:57:50;0.90;99.90
42479;DHT22;28110;47.080;9.476;2023-01-26T07:00:16;0.90;99.90
42479;DHT22;28110;47.080;9.476;2023-01-26T07:02:42;0.90;99.90
42479;DHT22;28110;47.080;9.476;2023-01-26T07:05:07;0.90;99.90
42479;DHT22;28110;47.080;9.476;2023-01-26T07:07:33;0.90;99.90
42479;DHT22;28110;47.080;9.476;2023-01-26T07:09:58;0.90;99.90
42479;DHT22;28110;47.080;9.476;2023-01-26T07:12:24;0.90;99.90
42479;DHT22;28110;47.080;9.476;2023-01-26T07:14:49;0.90;99.90
42479;DHT22;28110;47.080;9.476;2023-01-26T07:17:16;0.90;99.90
42479;DHT22;28110;47.080;9.476;2023-01-26T07:19:42;0.90;99.90
42479;DHT22;28110;47.080;9.476;2023-01-26T07:22:07;0.90;99.90
42479;DHT22;28110;47.080;9.476;2023-01-26T07:24:33;0.90;99.90
42479;DHT22;28110;47.080;9.476;2023-01-26T07:26:58;0.90;99.90
42479;DHT22;28110;47.080;9.476;2023-01-26T07:29:24;0.90;99.90
42479;DHT22;28110;47.080;9.476;2023-01-26T07:31:50;1.00;99.90
42479;DHT22;28110;47.080;9.476;2023-01-26T07:34:16;1.00;99.90
42479;DHT22;28110;47.080;9.476;2023-01-26T07:36:41;1.00;99.90
42479;DHT22;28110;47.080;9.476;2023-01-26T07:39:07;1.00;99.90
42479;DHT22;28110;47.080;9.476;2023-01-26T07:41:32;1.00;99.90
42479;DHT22;28110;47.080;9.476;2023-01-26T07:43:58;1.00;99.90
42479;DHT22;28110;47.080;9.476;2023-01-26T07:46:23;1.10;99.90
42479;DHT22;28110;47.080;9.476;2023-01-26T07:48:49;1.00;99.90
42479;DHT22;28110;47.080;9.476;2023-01-26T07:51:15;0.90;99.90
42479;DHT22;28110;47.080;9.476;2023-01-26T07:53:41;0.80;99.90
42479;DHT22;28110;47.080;9.476;2023-01-26T07:56:10;0.80;99.90
42479;DHT22;28110;47.080;9.476;2023-01-26T07:58:36;0.80;99.90
42479;DHT22;28110;47.080;9.476;2023-01-26T08:01:10;0.80;99.90
42479;DHT22;28110;47.080;9.476;2023-01-26T08:03:37;0.90;99.90
42479;DHT22;28110;47.080;9.476;2023-01-26T08:06:03;0.90;99.90
42479;DHT22;28110;47.080;9.476;2023-01-26T08:08:29;0.90;99.90
42479;DHT22;28110;47.080;9.476;2023-01-26T08:10:58;1.00;99.90
42479;DHT22;28110;47.080;9.476;2023-01-26T08:13:28;1.00;99.90
42479;DHT22;28110;47.080;9.476;2023-01-26T08:15:54;1.00;99.90
42479;DHT22;28110;47.080;9.476;2023-01-26T08:18:20;0.90;99.90
42479;DHT22;28110;47.080;9.476;2023-01-26T08:20:53;1.00;99.90
42479;DHT22;28110;47.080;9.476;2023-01-26T08:23:19;1.00;99.90
42479;DHT22;28110;47.080;9.476;2023-01-26T08:25:44;1.00;99.90
42479;DHT22;28110;47.080;9.476;2023-01-26T08:28:10;1.00;99.90
42479;DHT22;28110;47.080;9.476;2023-01-26T08:30:36;1.10;99.90
42479;DHT22;28110;47.080;9.476;2023-01-26T08:33:02;1.10;99.90
42479;DHT22;28110;47.080;9.476;2023-01-26T08:35:29;1.10;99.90
42479;DHT22;28110;47.080;9.476;2023-01-26T08:37:55;1.10;99.90
42479;DHT22;28110;47.080;9.476;2023-01-26T08:40:20;1.20;99.90
42479;DHT22;28110;47.080;9.476;2023-01-26T08:42:46;1.20;99.90
42479;DHT22;28110;47.080;9.476;2023-01-26T08:45:11;1.20;99.90
42479;DHT22;28110;47.080;9.476;2023-01-26T08:47:37;1.20;99.90
42479;DHT22;28110;47.080;9.476;2023-01-26T08:50:03;1.30;99.90
42479;DHT22;28110;47.080;9.476;2023-01-26T08:52:29;1.20;99.90
42479;DHT22;28110;47.080;9.476;2023-01-26T08:54:54;1.20;99.90
42479;DHT22;28110;47.080;9.476;2023-01-26T08:57:20;1.10;99.90
42479;DHT22;28110;47.080;9.476;2023-01-26T08:59:46;1.10;99.90
42479;DHT22;28110;47.080;9.476;2023-01-26T09:02:11;1.10;99.90
42479;DHT22;28110;47.080;9.476;2023-01-26T09:04:38;1.10;99.90
42479;DHT22;28110;47.080;9.476;2023-01-26T09:07:03;1.00;99.90
42479;DHT22;28110;47.080;9.476;2023-01-26T09:09:30;1.00;99.90
42479;DHT22;28110;47.080;9.476;2023-01-26T09:11:56;0.90;99.90
42479;DHT22;28110;47.080;9.476;2023-01-26T09:14:22;0.90;99.90
42479;DHT22;28110;47.080;9.476;2023-01-26T09:16:48;0.90;99.90
42479;DHT22;28110;47.080;9.476;2023-01-26T09:19:14;0.90;99.90
42479;DHT22;28110;47.080;9.476;2023-01-26T09:21:39;0.80;99.90
42479;DHT22;28110;47.080;9.476;2023-01-26T09:24:06;0.90;99.90
42479;DHT22;28110;47.080;9.476;2023-01-26T09:26:32;0.90;99.90
42479;DHT22;28110;47.080;9.476;2023-01-26T09:28:57;0.90;99.90
42479;DHT22;28110;47.080;9.476;2023-01-26T09:31:23;0.90;99.90
42479;DHT22;28110;47.080;9.476;2023-01-26T09:33:49;0.90;99.90
42479;DHT22;28110;47.080;9.476;2023-01-26T09:36:15;0.90;99.90
42479;DHT22;28110;47.080;9.476;2023-01-26T09:38:41;1.00;99.90
42479;DHT22;28110;47.080;9.476;2023-01-26T09:41:17;1.00;99.90
42479;DHT22;28110;47.080;9.476;2023-01-26T09:43:49;1.00;99.90
42479;DHT22;28110;47.080;9.476;2023-01-26T09:46:31;1.00;99.90
42479;DHT22;28110;47.080;9.476;2023-01-26T09:49:08;1.00;99.90
42479;DHT22;28110;47.080;9.476;2023-01-26T09:51:41;1.00;99.90
42479;DHT22;28110;47.080;9.476;2023-01-26T09:56:37;1.00;99.90
42479;DHT22;28110;47.080;9.476;2023-01-26T09:59:05;1.00;99.90
42479;DHT22;28110;47.080;9.476;2023-01-26T10:01:36;1.00;99.90
42479;DHT22;28110;47.080;9.476;2023-01-26T10:04:04;1.00;99.90
42479;DHT22;28110;47.080;9.476;2023-01-26T10:06:36;1.00;99.90
42479;DHT22;28110;47.080;9.476;2023-01-26T10:09:23;1.10;99.90
42479;DHT22;28110;47.080;9.476;2023-01-26T10:11:56;1.20;99.90
42479;DHT22;28110;47.080;9.476;2023-01-26T10:16:55;1.20;99.90
42479;DHT22;28110;47.080;9.476;2023-01-26T10:19:39;1.30;99.90
42479;DHT22;28110;47.080;9.476;2023-01-26T10:22:18;1.30;99.90
42479;DHT22;28110;47.080;9.476;2023-01-26T10:24:47;1.40;99.90
42479;DHT22;28110;47.080;9.476;2023-01-26T10:27:13;1.40;99.90
42479;DHT22;28110;47.080;9.476;2023-01-26T10:29:39;1.40;99.90
42479;DHT22;28110;47.080;9.476;2023-01-26T10:32:04;1.40;99.90
42479;DHT22;28110;47.080;9.476;2023-01-26T10:34:31;1.40;99.90
42479;DHT22;28110;47.080;9.476;2023-01-26T10:37:21;1.40;99.90
42479;DHT22;28110;47.080;9.476;2023-01-26T10:40:01;1.30;99.90
42479;DHT22;28110;47.080;9.476;2023-01-26T10:42:30;1.30;99.90
42479;DHT22;28110;47.080;9.476;2023-01-26T10:45:01;1.20;99.90
42479;DHT22;28110;47.080;9.476;2023-01-26T10:47:27;1.20;99.90
42479;DHT22;28110;47.080;9.476;2023-01-26T10:50:14;1.20;99.90
42479;DHT22;28110;47.080;9.476;2023-01-26T10:53:02;1.10;99.90
42479;DHT22;28110;47.080;9.476;2023-01-26T10:55:29;1.10;99.90
42479;DHT22;28110;47.080;9.476;2023-01-26T10:57:55;1.10;99.90
42479;DHT22;28110;47.080;9.476;2023-01-26T11:00:30;1.10;99.90
42479;DHT22;28110;47.080;9.476;2023-01-26T11:05:36;1.00;99.90
42479;DHT22;28110;47.080;9.476;2023-01-26T11:08:02;1.00;99.90
42479;DHT22;28110;47.080;9.476;2023-01-26T11:10:39;1.10;99.90
42479;DHT22;28110;47.080;9.476;2023-01-26T11:13:17;1.10;99.90
42479;DHT22;28110;47.080;9.476;2023-01-26T11:16:42;1.10;99.90
42479;DHT22;28110;47.080;9.476;2023-01-26T11:18:56;1.10;99.90
42479;DHT22;28110;47.080;9.476;2023-01-26T11:21:39;1.10;99.90
42479;DHT22;28110;47.080;9.476;2023-01-26T11:29:45;1.10;99.90
42479;DHT22;28110;47.080;9.476;2023-01-26T11:35:21;1.30;99.90
42479;DHT22;28110;47.080;9.476;2023-01-26T11:40:47;1.50;99.90
42479;DHT22;28110;47.080;9.476;2023-01-26T11:49:22;1.60;99.90
42479;DHT22;28110;47.080;9.476;2023-01-26T11:57:40;1.70;99.90
42479;DHT22;28110;47.080;9.476;2023-01-26T12:00:22;1.80;99.90
42479;DHT22;28110;47.080;9.476;2023-01-26T12:03:03;1.80;99.90
42479;DHT22;28110;47.080;9.476;2023-01-26T12:05:37;1.90;99.90
42479;DHT22;28110;47.080;9.476;2023-01-26T12:08:22;1.80;99.90
42479;DHT22;28110;47.080;9.476;2023-01-26T12:11:01;1.70;99.90
42479;DHT22;28110;47.080;9.476;2023-01-26T12:13:57;1.60;99.90
42479;DHT22;28110;47.080;9.476;2023-01-26T12:16:34;1.50;99.90
42479;DHT22;28110;47.080;9.476;2023-01-26T12:20:11;1.50;99.90
42479;DHT22;28110;47.080;9.476;2023-01-26T12:24:44;1.30;99.90
42479;DHT22;28110;47.080;9.476;2023-01-26T12:27:26;1.20;99.90
42479;DHT22;28110;47.080;9.476;2023-01-26T12:32:41;1.10;99.90
42479;DHT22;28110;47.080;9.476;2023-01-26T12:35:10;1.10;99.90
42479;DHT22;28110;47.080;9.476;2023-01-26T12:37:44;1.10;99.90
42479;DHT22;28110;47.080;9.476;2023-01-26T12:40:35;1.10;99.90
42479;DHT22;28110;47.080;9.476;2023-01-26T12:43:15;1.10;99.90
42479;DHT22;28110;47.080;9.476;2023-01-26T12:45:47;1.00;99.90
42479;DHT22;28110;47.080;9.476;2023-01-26T12:48:19;1.00;99.90
42479;DHT22;28110;47.080;9.476;2023-01-26T12:50:50;1.00;99.90
42479;DHT22;28110;47.080;9.476;2023-01-26T12:53:36;1.00;99.90
42479;DHT22;28110;47.080;9.476;2023-01-26T12:56:19;1.00;99.90
42479;DHT22;28110;47.080;9.476;2023-01-26T12:58:47;1.00;99.90
42479;DHT22;28110;47.080;9.476;2023-01-26T13:01:16;1.10;99.90
42479;DHT22;28110;47.080;9.476;2023-01-26T13:03:57;1.10;99.90
42479;DHT22;28110;47.080;9.476;2023-01-26T13:06:25;1.10;99.90
42479;DHT22;28110;47.080;9.476;2023-01-26T13:11:44;1.10;99.90
42479;DHT22;28110;47.080;9.476;2023-01-26T13:24:45;1.00;99.90
42479;DHT22;28110;47.080;9.476;2023-01-26T13:35:15;1.00;99.90
42479;DHT22;28110;47.080;9.476;2023-01-26T13:38:10;1.00;99.90
42479;DHT22;28110;47.080;9.476;2023-01-26T13:40:44;1.00;99.90
42479;DHT22;28110;47.080;9.476;2023-01-26T13:43:21;1.00;99.90
42479;DHT22;28110;47.080;9.476;2023-01-26T13:46:23;1.00;99.90
42479;DHT22;28110;47.080;9.476;2023-01-26T13:48:52;0.90;99.90
42479;DHT22;28110;47.080;9.476;2023-01-26T13:51:32;0.90;99.90
42479;DHT22;28110;47.080;9.476;2023-01-26T13:56:34;0.90;99.90
42479;DHT22;28110;47.080;9.476;2023-01-26T13:59:17;0.90;99.90
42479;DHT22;28110;47.080;9.476;2023-01-26T14:01:49;0.90;99.90
42479;DHT22;28110;47.080;9.476;2023-01-26T14:04:27;0.90;99.90
42479;DHT22;28110;47.080;9.476;2023-01-26T14:07:05;0.90;99.90
42479;DHT22;28110;47.080;9.476;2023-01-26T14:09:34;0.90;99.90
42479;DHT22;28110;47.080;9.476;2023-01-26T14:12:05;0.90;99.90
42479;DHT22;28110;47.080;9.476;2023-01-26T14:14:35;0.90;99.90
42479;DHT22;28110;47.080;9.476;2023-01-26T14:17:06;0.90;99.90
42479;DHT22;28110;47.080;9.476;2023-01-26T14:19:39;0.90;99.90
42479;DHT22;28110;47.080;9.476;2023-01-26T14:22:11;0.90;99.90
42479;DHT22;28110;47.080;9.476;2023-01-26T14:24:38;0.90;99.90
42479;DHT22;28110;47.080;9.476;2023-01-26T14:27:04;0.90;99.90
42479;DHT22;28110;47.080;9.476;2023-01-26T14:29:36;0.90;99.90
42479;DHT22;28110;47.080;9.476;2023-01-26T14:32:02;0.90;99.90
42479;DHT22;28110;47.080;9.476;2023-01-26T14:34:29;0.90;99.90
42479;DHT22;28110;47.080;9.476;2023-01-26T14:39:31;1.00;99.90
42479;DHT22;28110;47.080;9.476;2023-01-26T14:41:57;1.00;99.90
42479;DHT22;28110;47.080;9.476;2023-01-26T14:44:23;1.00;99.90
42479;DHT22;28110;47.080;9.476;2023-01-26T14:52:26;1.00;99.90
42479;DHT22;28110;47.080;9.476;2023-01-26T14:54:55;1.00;99.90
42479;DHT22;28110;47.080;9.476;2023-01-26T14:57:24;1.00;99.90
42479;DHT22;28110;47.080;9.476;2023-01-26T14:59:55;1.00;99.90
42479;DHT22;28110;47.080;9.476;2023-01-26T15:02:35;1.00;99.90
42479;DHT22;28110;47.080;9.476;2023-01-26T15:07:57;1.00;99.90
42479;DHT22;28110;47.080;9.476;2023-01-26T15:10:41;1.00;99.90
42479;DHT22;28110;47.080;9.476;2023-01-26T15:15:43;0.90;99.90
42479;DHT22;28110;47.080;9.476;2023-01-26T15:20:52;0.90;99.90
42479;DHT22;28110;47.080;9.476;2023-01-26T15:23:28;0.90;99.90
42479;DHT22;28110;47.080;9.476;2023-01-26T15:25:54;0.80;99.90
42479;DHT22;28110;47.080;9.476;2023-01-26T15:28:24;0.80;99.90
42479;DHT22;28110;47.080;9.476;2023-01-26T15:30:54;0.80;99.90
42479;DHT22;28110;47.080;9.476;2023-01-26T15:33:45;0.80;99.90
42479;DHT22;28110;47.080;9.476;2023-01-26T15:38:48;0.70;99.90
42479;DHT22;28110;47.080;9.476;2023-01-26T15:41:14;0.70;99.90
42479;DHT22;28110;47.080;9.476;2023-01-26T15:43:40;0.70;99.90
42479;DHT22;28110;47.080;9.476;2023-01-26T15:46:08;0.80;99.90
42479;DHT22;28110;47.080;9.476;2023-01-26T15:48:34;0.80;99.90
42479;DHT22;28110;47.080;9.476;2023-01-26T15:51:00;0.80;99.90
42479;DHT22;28110;47.080;9.476;2023-01-26T15:53:25;0.80;99.90
42479;DHT22;28110;47.080;9.476;2023-01-26T15:55:51;0.80;99.90
42479;DHT22;28110;47.080;9.476;2023-01-26T15:58:18;0.90;99.90
42479;DHT22;28110;47.080;9.476;2023-01-26T16:00:44;0.80;99.90
42479;DHT22;28110;47.080;9.476;2023-01-26T16:03:16;0.80;99.90
42479;DHT22;28110;47.080;9.476;2023-01-26T16:05:43;0.70;99.90
42479;DHT22;28110;47.080;9.476;2023-01-26T16:08:12;0.70;99.90
42479;DHT22;28110;47.080;9.476;2023-01-26T16:10:38;0.70;99.90
42479;DHT22;28110;47.080;9.476;2023-01-26T16:13:08;0.70;99.90
42479;DHT22;28110;47.080;9.476;2023-01-26T16:18:03;0.70;99.90
42479;DHT22;28110;47.080;9.476;2023-01-26T16:20:29;0.70;99.90
42479;DHT22;28110;47.080;9.476;2023-01-26T16:22:55;0.70;99.90
42479;DHT22;28110;47.080;9.476;2023-01-26T16:27:48;0.60;99.90
42479;DHT22;28110;47.080;9.476;2023-01-26T16:30:15;0.60;99.90
42479;DHT22;28110;47.080;9.476;2023-01-26T16:32:40;0.60;99.90
42479;DHT22;28110;47.080;9.476;2023-01-26T16:35:25;0.60;99.90
42479;DHT22;28110;47.080;9.476;2023-01-26T16:37:50;0.60;99.90
42479;DHT22;28110;47.080;9.476;2023-01-26T16:40:17;0.60;99.90
42479;DHT22;28110;47.080;9.476;2023-01-26T16:42:46;0.60;99.90
42479;DHT22;28110;47.080;9.476;2023-01-26T16:45:18;0.60;99.90
42479;DHT22;28110;47.080;9.476;2023-01-26T16:47:43;0.60;99.90
42479;DHT22;28110;47.080;9.476;2023-01-26T16:50:09;0.60;99.90
42479;DHT22;28110;47.080;9.476;2023-01-26T16:52:35;0.60;99.90
42479;DHT22;28110;47.080;9.476;2023-01-26T16:55:01;0.60;99.90
42479;DHT22;28110;47.080;9.476;2023-01-26T16:57:27;0.60;99.90
42479;DHT22;28110;47.080;9.476;2023-01-26T16:59:52;0.60;99.90
42479;DHT22;28110;47.080;9.476;2023-01-26T17:02:22;0.50;99.90
42479;DHT22;28110;47.080;9.476;2023-01-26T17:04:49;0.60;99.90
42479;DHT22;28110;47.080;9.476;2023-01-26T17:07:14;0.60;99.90
42479;DHT22;28110;47.080;9.476;2023-01-26T17:09:40;0.60;99.90
42479;DHT22;28110;47.080;9.476;2023-01-26T17:12:05;0.60;99.90
42479;DHT22;28110;47.080;9.476;2023-01-26T17:14:31;0.60;99.90
42479;DHT22;28110;47.080;9.476;2023-01-26T17:16:57;0.60;99.90
42479;DHT22;28110;47.080;9.476;2023-01-26T17:19:22;0.50;99.90
42479;DHT22;28110;47.080;9.476;2023-01-26T17:21:48;0.50;99.90
42479;DHT22;28110;47.080;9.476;2023-01-26T17:24:13;0.60;99.90
42479;DHT22;28110;47.080;9.476;2023-01-26T17:26:39;0.50;99.90
42479;DHT22;28110;47.080;9.476;2023-01-26T17:29:05;0.50;99.90